Time;durP1;ratioP1;P1;durP2;ratioP2;P2;SDS_P1;SDS_P2;PMS_P1;PMS_P2;Temp;Humidity;BMP_temperature;BMP_pressure;BME280_temperature;BME280_humidity;BME280_pressure;Samples;Min_cycle;Max_cycle;Signal;HPM_P1;HPM_P2
2023/05/28 00:01:27;;;;;;;;;;;;;;;17.14;67.07;100150.50;5069842;28;19915;-54
2023/05/28 00:03:52;;;;;;;;;;;;;;;17.11;66.99;100145.28;5069683;28;19920;-54
2023/05/28 00:06:17;;;;;;;;;;;;;;;17.07;67.41;100143.72;5068908;28;20253;-54
2023/05/28 00:08:42;;;;;;;;;;;;;;;17.06;67.58;100136.63;5069029;28;19912;-54
2023/05/28 00:11:08;;;;;;;;;;;;;;;17.04;68.33;100143.91;5069488;28;19914;-54
2023/05/28 00:13:33;;;;;;;;;;;;;;;17.01;67.62;100133.34;5068920;28;20280;-54
2023/05/28 00:15:58;;;;;;;;;;;;;;;16.97;67.58;100139.81;5069946;28;20555;-54
2023/05/28 00:18:25;;;;;;;;;;;;;;;16.96;67.89;100135.41;5069512;28;19912;-55
2023/05/28 00:20:50;;;;;;;;;;;;;;;16.94;68.58;100126.56;5070319;28;20387;-54
2023/05/28 00:23:16;;;;;;;;;;;;;;;16.89;68.03;100129.50;5062790;28;19940;-54
2023/05/28 00:25:41;;;;;;;;;;;;;;;16.86;68.77;100131.50;5050265;28;19916;-54
2023/05/28 00:28:07;;;;;;;;;;;;;;;16.82;69.04;100127.25;5063571;28;20292;-54
2023/05/28 00:30:32;;;;;;;;;;;;;;;16.75;69.01;100125.88;5069883;28;19913;-54
2023/05/28 00:32:57;;;;;;;;;;;;;;;16.70;68.78;100130.63;5069765;28;19938;-54
2023/05/28 00:35:22;;;;;;;;;;;;;;;16.61;69.72;100133.81;5070579;28;20449;-54
2023/05/28 00:37:48;;;;;;;;;;;;;;;16.57;70.20;100132.28;5070320;28;19919;-54
2023/05/28 00:40:17;;;;;;;;;;;;;;;16.54;69.42;100132.44;5069683;28;20367;-54
2023/05/28 00:42:43;;;;;;;;;;;;;;;16.44;70.34;100131.19;5062458;28;20467;-54
2023/05/28 00:45:09;;;;;;;;;;;;;;;16.41;70.71;100142.94;5067912;28;19912;-54
2023/05/28 00:47:35;;;;;;;;;;;;;;;16.37;71.14;100135.13;5068438;28;19974;-54
2023/05/28 00:50:01;;;;;;;;;;;;;;;16.33;71.71;100133.56;5067754;28;19920;-54
2023/05/28 00:52:27;;;;;;;;;;;;;;;16.29;71.48;100140.91;5068246;28;19912;-54
2023/05/28 00:54:52;;;;;;;;;;;;;;;16.28;71.04;100130.25;5067539;28;19998;-54
2023/05/28 00:57:21;;;;;;;;;;;;;;;16.28;71.92;100135.63;5059257;28;19912;-55
2023/05/28 00:59:46;;;;;;;;;;;;;;;16.26;72.26;100134.84;5068792;28;19912;-54
2023/05/28 01:02:12;;;;;;;;;;;;;;;16.23;72.40;100138.56;5067978;28;20386;-54
2023/05/28 01:04:37;;;;;;;;;;;;;;;16.19;72.32;100141.50;5049712;28;19912;-54
2023/05/28 01:07:02;;;;;;;;;;;;;;;16.21;71.63;100140.44;5058429;28;19924;-54
2023/05/28 01:09:28;;;;;;;;;;;;;;;16.20;71.82;100137.84;5068440;28;19912;-54
2023/05/28 01:11:54;;;;;;;;;;;;;;;16.18;72.41;100134.38;5068683;28;19908;-54
2023/05/28 01:14:20;;;;;;;;;;;;;;;16.16;72.24;100133.63;5068793;28;19920;-54
2023/05/28 01:16:48;;;;;;;;;;;;;;;16.14;72.01;100133.69;5068716;28;19916;-55
2023/05/28 01:19:16;;;;;;;;;;;;;;;16.12;71.62;100129.34;5069307;28;19985;-54
2023/05/28 01:21:43;;;;;;;;;;;;;;;16.06;72.21;100113.59;5069482;28;19955;-54
2023/05/28 01:24:09;;;;;;;;;;;;;;;16.04;71.63;100118.16;5068386;28;19917;-54
2023/05/28 01:26:35;;;;;;;;;;;;;;;15.98;72.18;100116.66;5069033;28;19916;-55
2023/05/28 01:29:00;;;;;;;;;;;;;;;15.98;72.13;100111.28;5068981;28;19923;-54
2023/05/28 01:31:26;;;;;;;;;;;;;;;15.96;72.47;100112.34;5069630;28;19908;-54
2023/05/28 01:33:51;;;;;;;;;;;;;;;15.97;71.89;100114.06;5068517;28;19912;-54
2023/05/28 01:36:31;;;;;;;;;;;;;;;15.96;71.68;100115.00;5069622;28;19920;-54
2023/05/28 01:39:01;;;;;;;;;;;;;;;15.95;71.74;100110.63;5069144;28;19916;-54
2023/05/28 01:41:27;;;;;;;;;;;;;;;15.94;71.45;100107.06;5069382;28;19919;-54
2023/05/28 01:43:52;;;;;;;;;;;;;;;15.94;71.21;100115.09;5068241;28;19912;-54
2023/05/28 01:46:19;;;;;;;;;;;;;;;15.96;71.05;100112.34;5067738;28;20467;-54
2023/05/28 01:48:45;;;;;;;;;;;;;;;15.95;71.07;100106.09;5068468;28;19995;-55
2023/05/28 01:51:10;;;;;;;;;;;;;;;15.93;70.37;100107.13;5068653;28;20011;-54
2023/05/28 01:53:35;;;;;;;;;;;;;;;15.91;70.28;100106.34;5068027;28;19912;-54
2023/05/28 01:56:01;;;;;;;;;;;;;;;15.91;70.76;100109.03;5068691;28;19913;-54
2023/05/28 01:58:27;;;;;;;;;;;;;;;15.86;70.32;100111.97;5069022;28;19912;-54
2023/05/28 02:01:01;;;;;;;;;;;;;;;15.85;70.96;100112.88;5068473;28;19915;-55
2023/05/28 02:03:26;;;;;;;;;;;;;;;15.80;70.93;100106.88;5066368;28;19999;-55
2023/05/28 02:05:51;;;;;;;;;;;;;;;15.75;70.81;100109.81;5066884;28;19923;-55
2023/05/28 02:08:17;;;;;;;;;;;;;;;15.73;71.31;100110.88;5066605;28;20033;-54
2023/05/28 02:10:42;;;;;;;;;;;;;;;15.71;71.47;100118.13;5067106;28;19923;-54
2023/05/28 02:13:08;;;;;;;;;;;;;;;15.67;71.39;100112.03;5067722;28;20042;-55
2023/05/28 02:15:34;;;;;;;;;;;;;;;15.67;71.11;100116.53;5067082;28;19915;-54
2023/05/28 02:17:59;;;;;;;;;;;;;;;15.63;72.29;100113.13;5065720;28;19916;-55
2023/05/28 02:20:24;;;;;;;;;;;;;;;15.64;72.09;100114.88;5068316;28;19950;-54
2023/05/28 02:22:50;;;;;;;;;;;;;;;15.67;71.96;100112.03;5069055;28;19912;-55
2023/05/28 02:25:15;;;;;;;;;;;;;;;15.65;72.43;100113.94;5071063;28;19923;-55
2023/05/28 02:27:40;;;;;;;;;;;;;;;15.62;71.42;100111.41;5072107;28;19926;-54
2023/05/28 02:30:06;;;;;;;;;;;;;;;15.61;71.58;100112.38;5072837;28;19920;-54
2023/05/28 02:32:32;;;;;;;;;;;;;;;15.59;72.03;100113.38;5072842;28;19916;-55
2023/05/28 02:34:57;;;;;;;;;;;;;;;15.57;71.75;100115.25;5071587;28;19916;-54
2023/05/28 02:37:23;;;;;;;;;;;;;;;15.53;71.95;100109.19;5072428;28;19916;-55
2023/05/28 02:39:49;;;;;;;;;;;;;;;15.48;73.01;100113.94;5072015;28;19915;-55
2023/05/28 02:42:14;;;;;;;;;;;;;;;15.43;73.27;100112.44;5071164;28;19919;-55
2023/05/28 02:44:40;;;;;;;;;;;;;;;15.42;72.51;100114.22;5072413;28;19919;-54
2023/05/28 02:47:05;;;;;;;;;;;;;;;15.41;72.79;100114.31;5070909;28;19916;-54
2023/05/28 02:49:30;;;;;;;;;;;;;;;15.38;72.87;100114.44;5071342;28;20440;-55
2023/05/28 02:51:55;;;;;;;;;;;;;;;15.36;72.98;100117.19;5066938;28;19908;-55
2023/05/28 02:54:21;;;;;;;;;;;;;;;15.30;74.16;100122.88;5068801;28;19926;-55
2023/05/28 02:56:46;;;;;;;;;;;;;;;15.26;73.77;100121.28;5070510;28;19916;-54
2023/05/28 02:59:11;;;;;;;;;;;;;;;15.22;73.32;100117.00;5070062;28;19912;-54
2023/05/28 03:01:36;;;;;;;;;;;;;;;15.20;74.30;100110.00;5071206;28;20225;-54
2023/05/28 03:04:02;;;;;;;;;;;;;;;15.18;73.56;100117.25;5072153;28;19920;-54
2023/05/28 03:06:27;;;;;;;;;;;;;;;15.16;74.07;100125.34;5070934;28;19947;-54
2023/05/28 03:08:52;;;;;;;;;;;;;;;15.10;73.84;100123.00;5071830;28;19912;-55
2023/05/28 03:11:18;;;;;;;;;;;;;;;15.08;74.69;100119.50;5070466;28;20368;-55
2023/05/28 03:13:43;;;;;;;;;;;;;;;15.06;74.81;100132.13;5070276;28;19912;-54
2023/05/28 03:16:08;;;;;;;;;;;;;;;15.08;74.81;100126.69;5069924;28;19955;-54
2023/05/28 03:18:34;;;;;;;;;;;;;;;15.07;75.33;100125.84;5071072;28;19912;-54
2023/05/28 03:20:59;;;;;;;;;;;;;;;15.05;74.58;100125.03;5071128;28;19920;-54
2023/05/28 03:23:25;;;;;;;;;;;;;;;15.01;75.43;100125.22;5071059;28;19912;-54
2023/05/28 03:25:50;;;;;;;;;;;;;;;15.01;75.06;100126.09;5070863;28;20337;-54
2023/05/28 03:28:15;;;;;;;;;;;;;;;14.97;75.92;100129.91;5071644;28;19991;-54
2023/05/28 03:30:41;;;;;;;;;;;;;;;14.99;76.08;100122.63;5070130;28;20061;-54
2023/05/28 03:33:06;;;;;;;;;;;;;;;14.98;76.48;100122.72;5071255;28;19913;-55
2023/05/28 03:35:32;;;;;;;;;;;;;;;14.97;75.66;100123.66;5070081;28;20441;-55
2023/05/28 03:37:57;;;;;;;;;;;;;;;14.93;76.69;100119.38;5071487;28;19908;-55
2023/05/28 03:40:22;;;;;;;;;;;;;;;14.93;76.56;100128.28;5070623;28;19912;-54
2023/05/28 03:42:48;;;;;;;;;;;;;;;14.94;76.02;100127.34;5069689;28;19919;-55
2023/05/28 03:45:13;;;;;;;;;;;;;;;14.94;76.53;100124.66;5050915;28;20333;-55
2023/05/28 03:47:39;;;;;;;;;;;;;;;14.94;76.20;100124.66;5067434;28;20140;-55
2023/05/28 03:50:04;;;;;;;;;;;;;;;14.93;76.86;100122.94;5070461;28;20014;-55
2023/05/28 03:52:30;;;;;;;;;;;;;;;14.91;76.36;100118.63;5071086;28;20762;-55
2023/05/28 03:54:55;;;;;;;;;;;;;;;14.92;77.10;100123.03;5071507;28;19919;-55
2023/05/28 03:57:21;;;;;;;;;;;;;;;14.94;76.84;100118.47;5070403;28;19943;-55
2023/05/28 03:59:46;;;;;;;;;;;;;;;14.94;76.36;100127.34;5071020;28;19936;-55
2023/05/28 04:02:11;;;;;;;;;;;;;;;14.96;76.64;100128.13;5069497;28;20085;-55
2023/05/28 04:04:36;;;;;;;;;;;;;;;14.98;77.27;100125.38;5070307;28;19916;-55
2023/05/28 04:07:02;;;;;;;;;;;;;;;15.01;76.47;100131.47;5069730;28;19916;-55
2023/05/28 04:09:27;;;;;;;;;;;;;;;15.01;76.52;100136.81;5070358;28;20296;-55
2023/05/28 04:11:52;;;;;;;;;;;;;;;15.04;76.84;100135.81;5068757;28;20437;-55
2023/05/28 04:14:18;;;;;;;;;;;;;;;15.05;76.86;100138.44;5070504;28;19928;-54
2023/05/28 04:16:43;;;;;;;;;;;;;;;15.05;77.99;100133.06;5070779;28;19912;-55
2023/05/28 04:19:08;;;;;;;;;;;;;;;15.08;77.34;100135.59;5067265;28;19912;-54
2023/05/28 04:21:33;;;;;;;;;;;;;;;15.16;77.23;100129.84;5069318;28;20282;-54
2023/05/28 04:23:59;;;;;;;;;;;;;;;15.19;76.61;100137.75;5070654;28;19916;-55
2023/05/28 04:26:24;;;;;;;;;;;;;;;15.25;77.62;100141.00;5069494;28;20284;-54
2023/05/28 04:28:50;;;;;;;;;;;;;;;15.32;77.08;100131.69;5070133;28;20006;-54
2023/05/28 04:31:16;;;;;;;;;;;;;;;15.36;77.73;100138.66;5070525;28;19916;-55
2023/05/28 04:33:41;;;;;;;;;;;;;;;15.39;77.18;100146.56;5070488;28;20292;-54
2023/05/28 04:36:13;;;;;;;;;;;;;;;15.45;77.72;100150.75;5069431;28;19951;-54
2023/05/28 04:38:38;;;;;;;;;;;;;;;15.48;77.17;100146.13;5070404;28;19916;-54
2023/05/28 04:41:04;;;;;;;;;;;;;;;15.55;77.50;100144.84;5068579;28;19931;-55
2023/05/28 04:43:30;;;;;;;;;;;;;;;15.60;76.78;100152.66;5069294;28;20361;-54
2023/05/28 04:45:55;;;;;;;;;;;;;;;15.65;76.43;100148.78;5065896;28;19982;-55
2023/05/28 04:48:20;;;;;;;;;;;;;;;15.66;76.66;100149.66;5068735;28;19966;-54
2023/05/28 04:50:45;;;;;;;;;;;;;;;15.73;77.01;100154.63;5069247;28;20011;-55
2023/05/28 04:53:11;;;;;;;;;;;;;;;15.74;75.29;100145.66;5069392;28;19923;-54
2023/05/28 04:55:36;;;;;;;;;;;;;;;15.88;75.23;100149.44;5068540;28;20311;-55
2023/05/28 04:58:01;;;;;;;;;;;;;;;15.99;75.54;100155.09;5067347;28;20010;-55
2023/05/28 05:00:28;;;;;;;;;;;;;;;16.08;75.40;100147.41;5065817;28;19919;-55
2023/05/28 05:02:54;;;;;;;;;;;;;;;16.15;74.55;100151.53;5068951;28;20177;-55
2023/05/28 05:05:20;;;;;;;;;;;;;;;16.23;74.77;100153.78;5068008;28;20011;-54
2023/05/28 05:07:45;;;;;;;;;;;;;;;16.31;73.40;100154.28;5069220;28;19919;-55
2023/05/28 05:10:11;;;;;;;;;;;;;;;16.39;73.84;100157.41;5068671;28;19916;-54
2023/05/28 05:12:36;;;;;;;;;;;;;;;16.52;72.95;100156.66;5069232;28;19913;-54
2023/05/28 05:15:02;;;;;;;;;;;;;;;16.59;73.06;100155.38;5069375;28;19935;-55
2023/05/28 05:17:27;;;;;;;;;;;;;;;16.80;72.39;100162.25;5069669;28;19908;-54
2023/05/28 05:19:53;;;;;;;;;;;;;;;16.96;71.42;100159.59;5068674;28;19924;-54
2023/05/28 05:22:18;;;;;;;;;;;;;;;17.01;70.04;100154.84;5069068;28;19908;-55
2023/05/28 05:24:46;;;;;;;;;;;;;;;17.10;70.03;100151.59;5068523;28;19935;-54
2023/05/28 05:27:11;;;;;;;;;;;;;;;17.23;69.70;100155.34;5068073;28;19928;-54
2023/05/28 05:29:36;;;;;;;;;;;;;;;17.33;70.54;100155.69;5068758;28;20281;-55
2023/05/28 05:32:01;;;;;;;;;;;;;;;17.41;70.25;100154.28;5067756;28;19916;-54
2023/05/28 05:34:27;;;;;;;;;;;;;;;17.51;69.63;100158.19;5068499;28;19912;-55
2023/05/28 05:36:52;;;;;;;;;;;;;;;17.59;68.97;100155.94;5068538;28;19919;-55
2023/05/28 05:39:18;;;;;;;;;;;;;;;17.66;67.73;100161.81;5069343;28;19908;-55
2023/05/28 05:41:43;;;;;;;;;;;;;;;17.67;66.70;100161.72;5068808;28;19916;-54
2023/05/28 05:44:09;;;;;;;;;;;;;;;17.75;67.42;100162.13;5069461;28;19962;-54
2023/05/28 05:46:34;;;;;;;;;;;;;;;17.80;66.68;100161.84;5069007;28;19928;-54
2023/05/28 05:48:59;;;;;;;;;;;;;;;17.93;66.64;100154.78;5069579;28;19926;-54
2023/05/28 05:51:25;;;;;;;;;;;;;;;18.06;65.72;100170.09;5069558;28;20623;-54
2023/05/28 05:53:50;;;;;;;;;;;;;;;18.13;65.23;100160.69;5069221;28;19922;-54
2023/05/28 05:56:16;;;;;;;;;;;;;;;18.13;64.61;100167.91;5068595;28;19923;-55
2023/05/28 05:58:41;;;;;;;;;;;;;;;18.23;64.27;100166.38;5070710;28;19916;-54
2023/05/28 06:01:08;;;;;;;;;;;;;;;18.30;63.21;100170.44;5073729;28;19912;-55
2023/05/28 06:03:33;;;;;;;;;;;;;;;18.40;62.77;100170.75;5072735;28;19920;-54
2023/05/28 06:05:58;;;;;;;;;;;;;;;18.51;62.26;100171.81;5073326;28;20303;-55
2023/05/28 06:08:24;;;;;;;;;;;;;;;18.69;63.53;100173.38;5055071;28;19909;-54
2023/05/28 06:10:49;;;;;;;;;;;;;;;18.88;63.39;100164.97;5071093;28;19916;-55
2023/05/28 06:13:15;;;;;;;;;;;;;;;19.02;61.96;100179.31;5071029;28;19908;-54
2023/05/28 06:15:41;;;;;;;;;;;;;;;19.02;60.89;100167.66;5068734;28;20011;-55
2023/05/28 06:18:06;;;;;;;;;;;;;;;19.24;60.19;100173.38;5070279;28;20673;-54
2023/05/28 06:20:31;;;;;;;;;;;;;;;19.42;60.17;100172.22;5071323;28;19916;-54
2023/05/28 06:22:57;;;;;;;;;;;;;;;19.55;60.06;100178.50;5070977;28;19908;-54
2023/05/28 06:25:22;;;;;;;;;;;;;;;19.70;60.16;100174.78;5069781;28;20436;-55
2023/05/28 06:27:48;;;;;;;;;;;;;;;19.89;59.59;100179.78;5070530;28;19912;-54
2023/05/28 06:30:14;;;;;;;;;;;;;;;20.11;59.33;100172.84;5059212;28;19912;-54
2023/05/28 06:32:40;;;;;;;;;;;;;;;20.30;58.53;100177.84;5052672;28;19920;-55
2023/05/28 06:35:05;;;;;;;;;;;;;;;20.52;58.67;100178.06;5060862;28;20482;-54
2023/05/28 06:37:31;;;;;;;;;;;;;;;20.66;57.09;100176.13;5072877;28;20376;-54
2023/05/28 06:39:56;;;;;;;;;;;;;;;20.61;54.88;100172.88;5069375;28;19955;-55
2023/05/28 06:42:21;;;;;;;;;;;;;;;20.79;56.96;100163.44;5060567;28;20002;-54
2023/05/28 06:44:46;;;;;;;;;;;;;;;20.66;55.24;100168.00;5071548;28;19970;-54
2023/05/28 06:47:12;;;;;;;;;;;;;;;20.92;55.24;100166.16;5054307;28;20037;-54
2023/05/28 06:49:37;;;;;;;;;;;;;;;21.06;54.48;100173.28;5066865;28;19912;-54
2023/05/28 06:52:02;;;;;;;;;;;;;;;21.23;53.77;100179.19;5071104;28;20337;-54
2023/05/28 06:54:27;;;;;;;;;;;;;;;21.23;53.10;100183.72;5072107;28;19923;-54
2023/05/28 06:56:53;;;;;;;;;;;;;;;21.35;52.29;100196.38;5071481;28;19908;-54
2023/05/28 06:59:18;;;;;;;;;;;;;;;21.57;52.87;100175.69;5072435;28;20383;-54
2023/05/28 07:01:43;;;;;;;;;;;;;;;21.62;51.82;100180.75;5070552;28;19947;-54
2023/05/28 07:04:08;;;;;;;;;;;;;;;21.71;51.56;100180.09;5067209;28;20417;-54
2023/05/28 07:06:34;;;;;;;;;;;;;;;21.72;50.89;100179.97;5071085;28;20088;-54
2023/05/28 07:08:59;;;;;;;;;;;;;;;21.91;51.66;100179.47;5063582;28;19912;-54
2023/05/28 07:11:26;;;;;;;;;;;;;;;22.10;51.37;100174.34;5069584;28;20248;-54
2023/05/28 07:13:52;;;;;;;;;;;;;;;22.07;49.90;100174.59;5066922;28;19927;-54
2023/05/28 07:16:17;;;;;;;;;;;;;;;22.30;50.52;100179.09;5070243;28;19916;-54
2023/05/28 07:18:43;;;;;;;;;;;;;;;22.40;50.04;100177.41;5067724;28;19924;-54
2023/05/28 07:21:08;;;;;;;;;;;;;;;22.53;50.86;100183.59;5059781;28;19912;-54
2023/05/28 07:23:33;;;;;;;;;;;;;;;22.71;49.81;100179.44;5071586;28;20337;-54
2023/05/28 07:25:58;;;;;;;;;;;;;;;23.00;48.91;100179.78;5070765;28;19923;-54
2023/05/28 07:28:24;;;;;;;;;;;;;;;23.38;49.07;100188.41;5069541;28;19915;-54
2023/05/28 07:30:49;;;;;;;;;;;;;;;23.59;47.83;100174.94;5056909;28;19943;-54
2023/05/28 07:33:15;;;;;;;;;;;;;;;23.92;47.86;100189.22;5059738;28;19912;-54
2023/05/28 07:35:40;;;;;;;;;;;;;;;24.11;47.07;100194.00;5071022;28;19919;-54
2023/05/28 07:38:05;;;;;;;;;;;;;;;24.25;45.45;100193.72;5069785;28;20358;-55
2023/05/28 07:40:31;;;;;;;;;;;;;;;24.58;46.09;100194.34;5070633;28;19916;-54
2023/05/28 07:42:56;;;;;;;;;;;;;;;24.62;43.68;100189.50;5066659;28;19909;-54
2023/05/28 07:45:21;;;;;;;;;;;;;;;25.00;44.37;100187.00;5070582;28;20443;-54
2023/05/28 07:47:46;;;;;;;;;;;;;;;24.97;43.81;100190.00;5070451;28;19912;-54
2023/05/28 07:50:12;;;;;;;;;;;;;;;25.10;43.81;100185.19;5071101;28;19928;-54
2023/05/28 07:52:37;;;;;;;;;;;;;;;25.20;42.12;100186.09;5071272;28;20429;-54
2023/05/28 07:55:03;;;;;;;;;;;;;;;25.62;42.54;100184.06;5070348;28;20308;-54
2023/05/28 07:57:28;;;;;;;;;;;;;;;25.93;43.19;100189.25;5071386;28;19912;-54
2023/05/28 07:59:53;;;;;;;;;;;;;;;26.17;42.67;100188.00;5069901;28;19908;-54
2023/05/28 08:02:19;;;;;;;;;;;;;;;26.31;41.60;100187.56;5070060;28;20626;-54
2023/05/28 08:04:44;;;;;;;;;;;;;;;26.81;42.38;100189.06;5070938;28;20543;-55
2023/05/28 08:07:12;;;;;;;;;;;;;;;27.15;41.11;100187.47;5052741;28;20027;-54
2023/05/28 08:09:37;;;;;;;;;;;;;;;26.99;40.69;100181.81;5049945;28;19932;-54
2023/05/28 08:12:02;;;;;;;;;;;;;;;27.23;40.06;100179.41;5049204;28;19916;-55
2023/05/28 08:14:27;;;;;;;;;;;;;;;27.33;39.90;100179.41;5037316;28;19913;-54
2023/05/28 08:16:53;;;;;;;;;;;;;;;27.23;39.13;100180.25;5029792;28;19947;-55
2023/05/28 08:19:18;;;;;;;;;;;;;;;27.24;40.04;100181.13;5047218;28;20427;-55
2023/05/28 08:21:44;;;;;;;;;;;;;;;27.38;40.05;100183.38;5049580;28;19913;-54
2023/05/28 08:24:10;;;;;;;;;;;;;;;26.81;40.59;100186.34;5039093;28;19913;-54
2023/05/28 08:26:36;;;;;;;;;;;;;;;26.95;39.31;100174.94;5040763;28;19959;-54
2023/05/28 08:29:01;;;;;;;;;;;;;;;27.07;39.31;100180.06;5049995;28;19966;-54
2023/05/28 08:31:27;;;;;;;;;;;;;;;27.07;39.40;100169.13;5049974;28;19920;-54
2023/05/28 08:33:52;;;;;;;;;;;;;;;27.33;39.46;100173.94;5050531;28;20457;-55
2023/05/28 08:36:17;;;;;;;;;;;;;;;27.67;37.87;100175.88;5046455;28;19908;-55
2023/05/28 08:38:43;;;;;;;;;;;;;;;27.69;36.35;100176.59;5048859;28;19908;-54
2023/05/28 08:41:09;;;;;;;;;;;;;;;27.75;37.84;100172.34;5049919;28;19912;-54
2023/05/28 08:43:34;;;;;;;;;;;;;;;28.00;37.11;100168.88;5048398;28;19909;-54
2023/05/28 08:46:00;;;;;;;;;;;;;;;27.99;37.50;100162.53;5037344;28;19972;-54
2023/05/28 08:48:25;;;;;;;;;;;;;;;28.34;37.75;100162.50;5048750;28;20633;-54
2023/05/28 08:50:53;;;;;;;;;;;;;;;28.35;37.56;100157.91;5034617;28;20348;-55
2023/05/28 08:53:23;;;;;;;;;;;;;;;28.48;37.25;100161.09;5041102;28;19917;-55
2023/05/28 08:55:48;;;;;;;;;;;;;;;28.66;36.57;100159.19;5031030;28;19952;-55
2023/05/28 08:58:14;;;;;;;;;;;;;;;28.77;35.51;100150.69;5048028;28;20017;-55
2023/05/28 09:00:40;;;;;;;;;;;;;;;28.80;35.70;100144.88;5049558;28;19909;-55
2023/05/28 09:03:07;;;;;;;;;;;;;;;28.55;35.72;100148.47;5039127;28;19975;-55
2023/05/28 09:05:38;;;;;;;;;;;;;;;28.34;36.41;100146.09;5056582;28;19917;-55
2023/05/28 09:08:07;;;;;;;;;;;;;;;28.30;37.25;100139.22;5053072;28;19908;-55
2023/05/28 09:10:33;;;;;;;;;;;;;;;28.74;36.40;100139.19;5059975;28;19920;-55
2023/05/28 09:12:59;;;;;;;;;;;;;;;28.93;34.37;100139.81;5057157;28;19912;-55
2023/05/28 09:15:24;;;;;;;;;;;;;;;28.94;36.38;100135.22;5068693;28;20452;-54
2023/05/28 09:17:50;;;;;;;;;;;;;;;29.32;34.66;100135.59;5068648;28;19926;-55
2023/05/28 09:20:15;;;;;;;;;;;;;;;29.33;35.07;100137.28;5069411;28;20379;-55
2023/05/28 09:22:41;;;;;;;;;;;;;;;29.25;35.38;100136.41;5063005;28;20450;-55
2023/05/28 09:25:07;;;;;;;;;;;;;;;29.19;33.98;100137.91;5064026;28;20251;-55
2023/05/28 09:27:32;;;;;;;;;;;;;;;29.30;33.90;100134.03;5066726;28;20424;-55
2023/05/28 09:30:01;;;;;;;;;;;;;;;29.45;33.57;100130.50;5066732;28;19916;-55
2023/05/28 09:32:27;;;;;;;;;;;;;;;29.60;32.63;100137.00;5058583;28;20008;-55
2023/05/28 09:34:52;;;;;;;;;;;;;;;29.44;35.54;100125.19;5065076;28;20388;-55
2023/05/28 09:37:17;;;;;;;;;;;;;;;29.05;33.15;100132.16;5061289;28;19917;-55
2023/05/28 09:39:43;;;;;;;;;;;;;;;29.11;35.03;100118.69;5049030;28;19919;-55
2023/05/28 09:42:09;;;;;;;;;;;;;;;29.15;34.14;100119.22;5047581;28;20014;-55
2023/05/28 09:44:36;;;;;;;;;;;;;;;29.53;32.95;100124.16;5060089;28;19908;-55
2023/05/28 09:47:01;;;;;;;;;;;;;;;29.74;32.67;100116.34;5050014;28;20365;-55
2023/05/28 09:49:30;;;;;;;;;;;;;;;30.00;32.06;100124.44;5051905;28;19914;-55
2023/05/28 09:51:57;;;;;;;;;;;;;;;29.83;32.71;100115.34;5058909;28;19916;-55
2023/05/28 09:54:26;;;;;;;;;;;;;;;30.24;31.92;100122.56;5056565;28;20264;-55
2023/05/28 09:56:52;;;;;;;;;;;;;;;30.20;32.72;100117.56;5066698;28;20295;-55
2023/05/28 09:59:18;;;;;;;;;;;;;;;30.21;32.56;100114.66;5050574;28;19915;-55
2023/05/28 10:02:06;;;;;;;;;;;;;;;30.27;31.75;100113.13;5064521;28;19913;-56
2023/05/28 10:04:36;;;;;;;;;;;;;;;30.21;32.73;100109.16;5046296;28;19927;-55
2023/05/28 10:07:07;;;;;;;;;;;;;;;30.32;32.40;100110.72;5066440;28;19920;-55
2023/05/28 10:09:34;;;;;;;;;;;;;;;30.59;31.95;100113.91;5067094;28;20001;-55
2023/05/28 10:12:02;;;;;;;;;;;;;;;31.02;32.19;100107.16;5067787;28;20371;-55
2023/05/28 10:14:28;;;;;;;;;;;;;;;31.32;31.63;100111.00;5051286;28;20404;-55
2023/05/28 10:16:53;;;;;;;;;;;;;;;31.46;31.88;100112.97;5051390;28;19951;-55
2023/05/28 10:19:19;;;;;;;;;;;;;;;31.40;30.89;100110.94;5050587;28;19917;-54
2023/05/28 10:21:44;;;;;;;;;;;;;;;31.24;31.50;100106.34;5049493;28;19912;-55
2023/05/28 10:24:10;;;;;;;;;;;;;;;31.45;31.73;100116.75;5057634;28;19983;-55
2023/05/28 10:26:36;;;;;;;;;;;;;;;31.69;30.45;100113.84;5056092;28;20491;-55
2023/05/28 10:29:05;;;;;;;;;;;;;;;31.66;32.15;100112.34;5049123;28;19999;-55
2023/05/28 10:31:31;;;;;;;;;;;;;;;31.88;32.77;100110.63;5053243;28;19922;-55
2023/05/28 10:33:56;;;;;;;;;;;;;;;31.98;31.47;100109.38;5053204;28;19908;-55
2023/05/28 10:36:21;;;;;;;;;;;;;;;32.13;30.94;100112.16;5067558;28;19947;-55
2023/05/28 10:38:46;;;;;;;;;;;;;;;31.87;31.41;100106.19;5055799;28;20262;-54
2023/05/28 10:41:18;;;;;;;;;;;;;;;31.65;31.04;100102.34;5049403;28;19916;-55
2023/05/28 10:43:45;;;;;;;;;;;;;;;32.08;32.23;100109.09;5058538;28;19913;-54
2023/05/28 10:46:18;;;;;;;;;;;;;;;32.50;31.74;100095.69;5065444;28;19970;-55
2023/05/28 10:49:04;;;;;;;;;;;;;;;32.96;31.03;100100.00;5069584;28;19923;-55
2023/05/28 10:51:48;;;;;;;;;;;;;;;33.16;31.51;100101.09;5048774;28;19924;-55
2023/05/28 10:54:20;;;;;;;;;;;;;;;33.11;30.80;100097.22;5055314;28;19917;-55
2023/05/28 10:57:04;;;;;;;;;;;;;;;33.04;30.94;100088.88;5052303;28;19913;-55
2023/05/28 10:59:55;;;;;;;;;;;;;;;33.24;31.15;100081.72;5051877;28;20262;-55
2023/05/28 11:02:27;;;;;;;;;;;;;;;33.29;30.12;100084.75;5047130;28;19924;-55
2023/05/28 11:04:54;;;;;;;;;;;;;;;33.59;30.59;100074.50;5065332;28;19912;-55
2023/05/28 11:07:20;;;;;;;;;;;;;;;33.85;30.36;100080.31;5057639;28;19924;-55
2023/05/28 11:09:50;;;;;;;;;;;;;;;33.71;29.80;100069.34;5058768;28;19923;-55
2023/05/28 11:12:15;;;;;;;;;;;;;;;33.55;30.28;100072.31;5064623;28;19996;-55
2023/05/28 11:14:41;;;;;;;;;;;;;;;33.54;31.32;100070.63;5053693;28;20362;-55
2023/05/28 11:17:10;;;;;;;;;;;;;;;33.75;30.75;100059.59;5053787;28;19922;-55
2023/05/28 11:19:42;;;;;;;;;;;;;;;33.38;30.88;100066.16;5064707;28;19942;-55
2023/05/28 11:22:08;;;;;;;;;;;;;;;33.41;30.52;100059.41;5054771;28;19917;-55
2023/05/28 11:24:49;;;;;;;;;;;;;;;33.43;30.50;100062.88;5051374;28;19919;-55
2023/05/28 11:27:15;;;;;;;;;;;;;;;33.63;30.23;100050.97;5058024;28;20007;-55
2023/05/28 11:29:40;;;;;;;;;;;;;;;33.95;31.15;100056.00;5067307;28;20007;-55
2023/05/28 11:32:06;;;;;;;;;;;;;;;34.33;31.13;100051.84;5051255;28;19909;-55
2023/05/28 11:34:31;;;;;;;;;;;;;;;34.47;30.42;100058.34;5051613;28;19955;-55
2023/05/28 11:36:58;;;;;;;;;;;;;;;34.78;30.64;100050.47;5054917;28;19916;-55
2023/05/28 11:39:24;;;;;;;;;;;;;;;35.12;30.96;100058.78;5056393;28;19912;-55
2023/05/28 11:41:50;;;;;;;;;;;;;;;35.12;28.87;100055.16;5055156;28;19998;-55
2023/05/28 11:44:19;;;;;;;;;;;;;;;35.01;28.11;100062.09;5052760;28;19919;-55
2023/05/28 11:46:44;;;;;;;;;;;;;;;34.87;28.59;100049.25;5051659;28;19921;-55
2023/05/28 11:49:10;;;;;;;;;;;;;;;35.10;28.08;100044.28;5054783;28;19920;-55
2023/05/28 11:51:35;;;;;;;;;;;;;;;34.88;28.90;100053.72;5054555;28;20351;-55
2023/05/28 11:54:01;;;;;;;;;;;;;;;35.20;30.38;100054.97;5062856;28;20012;-55
2023/05/28 11:56:27;;;;;;;;;;;;;;;34.87;29.67;100049.25;5062821;28;19974;-55
2023/05/28 11:58:52;;;;;;;;;;;;;;;34.91;28.29;100045.03;5061568;28;19912;-55
2023/05/28 12:01:17;;;;;;;;;;;;;;;35.17;29.29;100045.19;5033371;28;20404;-55
2023/05/28 12:03:42;;;;;;;;;;;;;;;35.59;28.44;100044.91;5065731;28;19916;-55
2023/05/28 12:06:08;;;;;;;;;;;;;;;35.61;28.80;100042.78;5056431;28;20811;-55
2023/05/28 12:08:33;;;;;;;;;;;;;;;35.49;30.17;100041.69;5053137;28;19955;-55
2023/05/28 12:11:02;;;;;;;;;;;;;;;35.49;27.36;100044.44;5052263;28;20011;-55
2023/05/28 12:13:34;;;;;;;;;;;;;;;35.73;28.37;100041.09;5060933;28;19908;-55
2023/05/28 12:16:12;;;;;;;;;;;;;;;35.82;28.22;100035.38;5054398;28;19968;-55
2023/05/28 12:18:41;;;;;;;;;;;;;;;35.89;27.04;100039.00;5052487;28;19919;-55
2023/05/28 12:21:18;;;;;;;;;;;;;;;35.91;27.38;100031.34;5062743;28;20369;-55
2023/05/28 12:23:43;;;;;;;;;;;;;;;35.63;28.23;100035.13;5049745;28;19912;-55
2023/05/28 12:26:10;;;;;;;;;;;;;;;35.57;27.87;100030.41;5050632;28;20388;-56
2023/05/28 12:28:39;;;;;;;;;;;;;;;35.52;28.30;100032.97;5060432;28;19916;-56
2023/05/28 12:31:05;;;;;;;;;;;;;;;35.54;27.22;100024.44;5068819;28;19965;-55